Overview Statistics Trail Chart Weather Telemetry Raw packets
 

This is the latest recevied telemetry packets stored in our database for station/object OE3LXF-60. If no packets are shown the sender has not sent any telemetry packets the latest 10 day(s).

Telemetry packets is used to share measurements like repeteater parameters, battery voltage, radiation readings (or any other measurements).

<< 1 2 3 4 >>
Time Press* Temp.in* Hum* QNH* Temp.out*
1788595432 986.9 hPa 28.4 C deg 0 % 1016.6 hPa 0 C deg
1788593572 986.8 hPa 29.4 C deg 0 % 1016.4 hPa 0 C deg
1788580893 984 hPa 31.2 C deg 0 % 1013.3 hPa 0 C deg
1788571789 980.2 hPa 33.9 C deg 0 % 1009.2 hPa 0 C deg
1788566402 979.8 hPa 34 C deg 0 % 1008.8 hPa 0 C deg
1788564555 979.7 hPa 34 C deg 0 % 1008.6 hPa 0 C deg
1788559095 979.2 hPa 34.2 C deg 0 % 1008.2 hPa 0 C deg
1788557296 979.3 hPa 34.3 C deg 0 % 1008.2 hPa 0 C deg
1788555466 979.3 hPa 34.6 C deg 0 % 1008.2 hPa 0 C deg
1788551862 979.4 hPa 35.3 C deg 0 % 1008.2 hPa 0 C deg
1788542781 978.7 hPa 36.9 C deg 0 % 1007.3 hPa 0 C deg
1788528264 981.3 hPa 35.5 C deg 0 % 1010.2 hPa 0 C deg
1788519202 983.7 hPa 33.1 C deg 0 % 1012.8 hPa 0 C deg
1788517383 984.2 hPa 32.8 C deg 0 % 1013.4 hPa 0 C deg
1788513724 984.9 hPa 32.5 C deg 0 % 1014.1 hPa 0 C deg
1788502922 985.9 hPa 29.5 C deg 0 % 1015.5 hPa 0 C deg
1788501052 986 hPa 29.1 C deg 0 % 1015.6 hPa 0 C deg
1788495583 985.9 hPa 29.3 C deg 0 % 1015.4 hPa 0 C deg
1788493744 985.9 hPa 29.6 C deg 0 % 1015.5 hPa 0 C deg
1788481079 986.3 hPa 30.9 C deg 0 % 1015.7 hPa 0 C deg
1788475617 986.7 hPa 31.5 C deg 0 % 1016.1 hPa 0 C deg
1788470175 986.7 hPa 31.9 C deg 0 % 1016.1 hPa 0 C deg
1788466552 986.6 hPa 32.4 C deg 0 % 1015.9 hPa 0 C deg
1788464700 986.5 hPa 32.7 C deg 0 % 1015.7 hPa 0 C deg
1788462885 986.1 hPa 32.9 C deg 0 % 1015.3 hPa 0 C deg
*Used Equation Coefficients:
Press: 0, 1, 0
Temp.in: 0, 1, 0
Hum: 0, 1, 0
QNH: 0, 1, 0
Temp.out: 0, 1, 0

  • The parameter names for the analog channels will be Value1, Value2, Value3 (up to Value5) if station has not sent a PARAM-packet that specifies the parameter names for each analog channel.
  • Each analog value is a decimal number between 000 and 255 (according to APRS specifications). The receiver use the telemetry equation coefficientsto to restore the original sensor values. If no EQNS-packet with equation coefficients is sent we will show the values as is (this corresponds to the equation coefficients a=0, b=1 and c=0).
    The sent equation coefficients is used in the equation: a * value2 + b * value + c.
  • The units for the analog values will not be shown if station has not sent a UNIT-packet specifying what unit's to use.
  • The parameter names for the digital bits will be Bit1, Bit2, Bit3 (up to Bit8) if station has not sent a PARAM-packet that specifies the parameter names for each digital bit.
  • All bit labels will be named "On" if station has not sent a UNIT-packet that specifies the label of each bit.
  • A bit is considered to be On when the bit is 1 if station has not sent a BITS-packet that specifies another "Bit sense" (a BITS-packet specify the state of the bits that match the BIT labels)